createdAt,value
2023-08-02T00:00:58.557Z,99246.40
2023-08-02T00:03:35.566Z,99246.00
2023-08-02T00:06:03.645Z,99252.60
2023-08-02T00:08:31.628Z,99250.40
2023-08-02T00:10:59.723Z,99245.80
2023-08-02T00:13:27.525Z,99240.40
2023-08-02T00:15:55.361Z,99239.40
2023-08-02T00:18:23.166Z,99234.80
2023-08-02T00:20:52.014Z,99237.40
2023-08-02T00:23:19.790Z,99232.20
2023-08-02T00:25:47.606Z,99240.00
2023-08-02T00:28:15.348Z,99242.60
2023-08-02T00:30:48.191Z,99243.00
2023-08-02T00:33:16.446Z,99241.40
2023-08-02T00:35:49.463Z,99246.20
2023-08-02T00:38:17.877Z,99251.00
2023-08-02T00:40:45.663Z,99253.40
2023-08-02T00:43:13.805Z,99258.60
2023-08-02T00:45:41.890Z,99256.80
2023-08-02T00:48:09.759Z,99256.40
2023-08-02T00:50:38.666Z,99254.20
2023-08-02T00:53:06.915Z,99250.60
2023-08-02T00:55:35.046Z,99250.80
2023-08-02T00:58:02.928Z,99245.40
2023-08-02T01:00:30.969Z,99244.40
2023-08-02T01:02:59.001Z,99249.00
2023-08-02T01:05:35.392Z,99251.80
2023-08-02T01:08:06.996Z,99250.40
2023-08-02T01:11:10.803Z,99252.60
2023-08-02T01:13:47.089Z,99257.00
2023-08-02T01:16:16.810Z,99262.40
2023-08-02T01:18:44.744Z,99266.20
2023-08-02T01:21:12.601Z,99270.80
2023-08-02T01:23:40.490Z,99274.40
2023-08-02T01:26:08.249Z,99270.20
2023-08-02T01:28:43.932Z,99270.00
2023-08-02T01:31:13.761Z,99269.60
2023-08-02T01:33:49.782Z,99270.80
2023-08-02T01:36:18.447Z,99266.80
2023-08-02T01:38:46.240Z,99259.40
2023-08-02T01:41:14.002Z,99261.20
2023-08-02T01:43:41.950Z,99260.80
2023-08-02T01:46:09.933Z,99260.80
2023-08-02T01:48:37.871Z,99264.00
2023-08-02T01:51:06.597Z,99266.00
2023-08-02T01:53:34.349Z,99264.40
2023-08-02T01:56:02.064Z,99269.40
2023-08-02T01:58:31.804Z,99269.00
2023-08-02T02:00:59.773Z,99268.00
2023-08-02T02:03:27.884Z,99272.60
2023-08-02T02:05:55.974Z,99279.00
2023-08-02T02:08:24.169Z,99280.80
2023-08-02T02:10:54.120Z,99286.80
2023-08-02T02:13:26.113Z,99284.60
2023-08-02T02:15:54.032Z,99284.40
2023-08-02T02:18:22.237Z,99280.40
2023-08-02T02:20:50.003Z,99277.00
2023-08-02T02:23:18.004Z,99279.00
2023-08-02T02:25:46.216Z,99280.20
2023-08-02T02:28:14.033Z,99279.00
2023-08-02T02:30:44.632Z,99276.80
2023-08-02T02:33:14.114Z,99282.40
2023-08-02T02:35:41.950Z,99275.80
2023-08-02T02:38:09.761Z,99271.80
2023-08-02T02:40:37.610Z,99269.80
2023-08-02T02:43:05.381Z,99270.20
2023-08-02T02:45:33.164Z,99270.00
2023-08-02T02:48:01.073Z,99266.60
2023-08-02T02:50:29.720Z,99270.00
2023-08-02T02:52:57.874Z,99277.20
2023-08-02T02:55:25.761Z,99284.00
2023-08-02T02:57:54.028Z,99283.20
2023-08-02T03:00:21.713Z,99285.00
2023-08-02T03:02:49.646Z,99284.60
2023-08-02T03:05:17.663Z,99286.20
2023-08-02T03:07:45.740Z,99290.80
2023-08-02T03:10:13.506Z,99287.60
2023-08-02T03:12:41.370Z,99289.60
2023-08-02T03:15:09.985Z,99286.00
2023-08-02T03:17:37.823Z,99287.00
2023-08-02T03:20:07.115Z,99284.60
2023-08-02T03:22:34.982Z,99292.40
2023-08-02T03:25:03.096Z,99291.80
2023-08-02T03:27:30.905Z,99297.00
2023-08-02T03:29:58.666Z,99308.80
2023-08-02T03:32:26.440Z,99311.00
2023-08-02T03:34:54.235Z,99308.60
2023-08-02T03:37:22.096Z,99309.60
2023-08-02T03:39:49.898Z,99303.60
2023-08-02T03:42:17.690Z,99305.40
2023-08-02T03:44:45.501Z,99306.20
2023-08-02T03:47:13.302Z,99309.20
2023-08-02T03:49:41.358Z,99311.20
2023-08-02T03:52:09.168Z,99312.20
2023-08-02T03:54:37.082Z,99312.00
2023-08-02T03:57:05.560Z,99317.00
2023-08-02T03:59:33.457Z,99315.40
2023-08-02T04:02:01.266Z,99314.20
2023-08-02T04:04:29.060Z,99312.60
2023-08-02T04:06:56.843Z,99310.00
2023-08-02T04:09:24.599Z,99312.80
2023-08-02T04:11:52.413Z,99320.00
2023-08-02T04:14:20.226Z,99323.00
2023-08-02T04:16:48.044Z,99323.60
2023-08-02T04:19:16.177Z,99323.40
2023-08-02T04:21:43.968Z,99328.80
2023-08-02T04:24:12.236Z,99326.00
2023-08-02T04:26:40.527Z,99328.20
2023-08-02T04:29:08.564Z,99328.20
2023-08-02T04:31:36.414Z,99331.20
2023-08-02T04:34:04.214Z,99336.20
2023-08-02T04:36:32.806Z,99336.40
2023-08-02T04:39:03.476Z,99336.00
2023-08-02T04:41:31.322Z,99340.00
2023-08-02T04:43:59.123Z,99342.00
2023-08-02T04:46:30.842Z,99342.80
2023-08-02T04:48:59.673Z,99344.20
2023-08-02T04:51:27.421Z,99349.00
2023-08-02T04:53:55.209Z,99348.60
2023-08-02T04:56:22.962Z,99350.00
2023-08-02T04:58:50.826Z,99352.40
2023-08-02T05:01:18.637Z,99350.20
2023-08-02T05:03:46.785Z,99354.40
2023-08-02T05:06:14.769Z,99356.20
2023-08-02T05:08:42.636Z,99362.40
2023-08-02T05:11:10.571Z,99356.20
2023-08-02T05:13:38.404Z,99359.60
2023-08-02T05:16:11.947Z,99355.20
2023-08-02T05:18:40.524Z,99355.60
2023-08-02T05:21:13.757Z,99359.20
2023-08-02T05:23:42.648Z,99362.80
2023-08-02T05:26:11.099Z,99365.80
2023-08-02T05:28:38.920Z,99361.20
2023-08-02T05:31:12.278Z,99366.60
2023-08-02T05:33:41.607Z,99361.60
2023-08-02T05:36:12.824Z,99356.40
2023-08-02T05:38:40.983Z,99360.20
2023-08-02T05:41:08.751Z,99363.60
2023-08-02T05:43:37.301Z,99362.60
2023-08-02T05:46:05.203Z,99363.00
2023-08-02T05:48:33.022Z,99374.80
2023-08-02T05:51:00.750Z,99372.60
2023-08-02T05:53:28.509Z,99376.00
2023-08-02T05:55:59.052Z,99376.20
2023-08-02T05:58:26.840Z,99379.80
2023-08-02T06:00:54.736Z,99377.60
2023-08-02T06:03:22.861Z,99374.20
2023-08-02T06:05:51.227Z,99378.40
2023-08-02T06:08:19.004Z,99380.60
2023-08-02T06:10:48.022Z,99379.40
2023-08-02T06:13:15.912Z,99383.20
2023-08-02T06:15:43.840Z,99382.60
2023-08-02T06:18:11.845Z,99384.60
2023-08-02T06:20:39.626Z,99388.40
2023-08-02T06:23:07.392Z,99388.60
2023-08-02T06:25:35.595Z,99391.40
2023-08-02T06:28:03.978Z,99396.80
2023-08-02T06:30:32.181Z,99399.00
2023-08-02T06:33:00.086Z,99394.40
2023-08-02T06:35:27.844Z,99388.20
2023-08-02T06:37:55.587Z,99386.60
2023-08-02T06:40:23.421Z,99396.40
2023-08-02T06:42:51.258Z,99395.80
2023-08-02T06:45:18.969Z,99399.00
2023-08-02T06:47:46.803Z,99393.80
2023-08-02T06:50:14.571Z,99394.60
2023-08-02T06:52:42.284Z,99400.20
2023-08-02T06:55:10.029Z,99402.40
2023-08-02T06:57:37.783Z,99398.60
2023-08-02T07:00:06.803Z,99407.60
2023-08-02T07:02:34.978Z,99410.20
2023-08-02T07:05:02.758Z,99410.40
2023-08-02T07:07:32.029Z,99412.00
2023-08-02T07:09:59.871Z,99417.20
2023-08-02T07:12:27.674Z,99419.80
2023-08-02T07:14:55.586Z,99420.00
2023-08-02T07:17:23.513Z,99424.40
2023-08-02T07:19:51.405Z,99430.00
2023-08-02T07:22:19.276Z,99429.60
2023-08-02T07:24:47.174Z,99427.20
2023-08-02T07:27:15.002Z,99426.80
2023-08-02T07:29:42.847Z,99429.00
2023-08-02T07:32:11.466Z,99426.00
2023-08-02T07:34:39.249Z,99433.00
2023-08-02T07:37:07.112Z,99427.80
2023-08-02T07:39:34.960Z,99431.40
2023-08-02T07:42:02.749Z,99434.60
2023-08-02T07:44:30.549Z,99439.20
2023-08-02T07:46:59.418Z,99441.40
2023-08-02T07:49:27.398Z,99446.80
2023-08-02T07:51:55.889Z,99442.60
2023-08-02T07:54:23.977Z,99439.20
2023-08-02T07:56:52.162Z,99438.60
2023-08-02T07:59:19.940Z,99440.00
2023-08-02T08:01:47.820Z,99439.20
2023-08-02T08:04:15.682Z,99436.60
2023-08-02T08:06:48.527Z,99440.20
2023-08-02T08:09:21.712Z,99441.00
2023-08-02T08:11:49.529Z,99431.60
2023-08-02T08:14:17.519Z,99432.60
2023-08-02T08:16:45.694Z,99441.80
2023-08-02T08:19:15.375Z,99443.60
2023-08-02T08:21:43.845Z,99449.60
2023-08-02T08:24:11.939Z,99451.00
2023-08-02T08:26:39.885Z,99453.80
2023-08-02T08:29:07.689Z,99448.20
2023-08-02T08:31:35.446Z,99448.00
2023-08-02T08:34:04.284Z,99447.60
2023-08-02T08:36:32.192Z,99447.60
2023-08-02T08:39:00.365Z,99447.20
2023-08-02T08:41:28.374Z,99443.80
2023-08-02T08:43:56.394Z,99448.00
2023-08-02T08:46:24.463Z,99452.00
2023-08-02T08:48:52.636Z,99448.20
2023-08-02T08:51:23.500Z,99452.20
2023-08-02T08:53:52.127Z,99456.00
2023-08-02T08:56:25.886Z,99452.60
2023-08-02T08:58:57.425Z,99455.20
2023-08-02T09:01:25.673Z,99459.80
2023-08-02T09:03:53.558Z,99465.40
2023-08-02T09:06:22.227Z,99466.60
2023-08-02T09:08:50.175Z,99465.80
2023-08-02T09:11:18.044Z,99462.20
2023-08-02T09:13:45.840Z,99458.20
2023-08-02T09:16:16.918Z,99466.00
2023-08-02T09:18:48.178Z,99460.00
2023-08-02T09:21:23.698Z,99462.00
2023-08-02T09:24:01.675Z,99464.80
2023-08-02T09:26:29.587Z,99463.20
2023-08-02T09:29:05.704Z,99460.00
2023-08-02T09:31:39.072Z,99455.60
2023-08-02T09:34:06.927Z,99453.00
2023-08-02T09:36:37.458Z,99449.60
2023-08-02T09:39:16.294Z,99451.40
2023-08-02T09:41:58.840Z,99446.80
2023-08-02T09:44:27.280Z,99446.40
2023-08-02T09:46:55.227Z,99444.00
2023-08-02T09:49:23.927Z,99449.00
2023-08-02T09:51:51.848Z,99446.00
2023-08-02T09:54:19.726Z,99450.40
2023-08-02T09:56:47.966Z,99440.60
2023-08-02T09:59:18.930Z,99443.60
2023-08-02T10:01:49.650Z,99443.80
2023-08-02T10:04:18.902Z,99441.40
2023-08-02T10:06:56.887Z,99447.00
2023-08-02T10:09:32.391Z,99442.80
2023-08-02T10:12:14.835Z,99438.40
2023-08-02T10:14:43.006Z,99436.40
2023-08-02T10:17:11.805Z,99435.40
2023-08-02T10:19:40.117Z,99433.20
2023-08-02T10:22:07.881Z,99431.80
2023-08-02T10:24:36.093Z,99429.00
2023-08-02T10:27:07.850Z,99430.40
2023-08-02T10:29:36.310Z,99428.60
2023-08-02T10:32:19.122Z,99431.00
2023-08-02T10:34:53.557Z,99429.00
2023-08-02T10:37:22.008Z,99421.60
2023-08-02T10:39:49.751Z,99413.40
2023-08-02T10:42:31.128Z,99410.40
2023-08-02T10:44:59.048Z,99409.60
2023-08-02T10:47:31.680Z,99404.60
2023-08-02T10:50:04.981Z,99400.40
2023-08-02T10:52:43.500Z,99400.20
2023-08-02T10:55:19.230Z,99393.60
2023-08-02T10:57:56.173Z,99391.40
2023-08-02T11:00:32.401Z,99386.20
2023-08-02T11:03:02.640Z,99387.20
2023-08-02T11:05:38.642Z,99387.00
2023-08-02T11:08:09.804Z,99380.00
2023-08-02T11:10:49.332Z,99379.20
2023-08-02T11:13:17.406Z,99381.20
2023-08-02T11:15:47.905Z,99378.20
2023-08-02T11:18:31.265Z,99375.80
2023-08-02T11:21:14.239Z,99372.20
2023-08-02T11:26:18.285Z,99372.20
2023-08-02T11:28:50.884Z,99371.40
2023-08-02T11:31:19.842Z,99373.20
2023-08-02T11:33:47.706Z,99376.80
2023-08-02T11:36:15.584Z,99368.20
2023-08-02T11:38:43.447Z,99371.40
2023-08-02T11:41:22.031Z,99376.40
2023-08-02T11:43:50.473Z,99377.40
2023-08-02T11:46:27.515Z,99376.80
2023-08-02T11:49:07.492Z,99372.00
2023-08-02T11:51:43.179Z,99375.00
2023-08-02T11:54:11.510Z,99372.80
2023-08-02T11:56:40.073Z,99369.00
2023-08-02T11:59:10.637Z,99372.60
2023-08-02T12:01:43.213Z,99372.40
2023-08-02T12:04:11.389Z,99370.40
2023-08-02T12:06:51.666Z,99372.80
2023-08-02T12:09:38.157Z,99372.60
2023-08-02T12:12:06.673Z,99376.40
2023-08-02T12:14:37.312Z,99373.60
2023-08-02T12:17:05.715Z,99379.00
2023-08-02T12:19:41.292Z,99376.20
2023-08-02T12:22:09.371Z,99375.20
2023-08-02T12:24:37.586Z,99375.20
2023-08-02T12:27:32.217Z,99378.20
2023-08-02T12:30:17.585Z,99378.00
2023-08-02T12:32:45.523Z,99380.80
2023-08-02T12:35:14.558Z,99379.00
2023-08-02T12:37:42.843Z,99378.00
2023-08-02T12:40:11.242Z,99373.40
2023-08-02T12:42:49.090Z,99378.00
2023-08-02T12:45:28.063Z,99372.00
2023-08-02T12:47:56.065Z,99366.80
2023-08-02T12:50:25.490Z,99363.80
2023-08-02T12:52:56.133Z,99367.80
2023-08-02T12:55:24.105Z,99361.60
2023-08-02T12:57:51.988Z,99357.00
2023-08-02T13:00:19.759Z,99358.40
2023-08-02T13:02:47.665Z,99351.80
2023-08-02T13:05:15.591Z,99349.00
2023-08-02T13:07:44.635Z,99344.40
2023-08-02T13:10:13.727Z,99341.80
2023-08-02T13:12:41.558Z,99340.40
2023-08-02T13:15:10.454Z,99351.20
2023-08-02T13:17:38.341Z,99344.20
2023-08-02T13:20:07.415Z,99338.80
2023-08-02T13:22:35.247Z,99332.40
2023-08-02T13:25:03.458Z,99327.20
2023-08-02T13:27:34.244Z,99320.60
2023-08-02T13:30:03.641Z,99327.60
2023-08-02T13:32:35.464Z,99323.60
2023-08-02T13:35:08.336Z,99331.20
2023-08-02T13:37:39.195Z,99330.60
2023-08-02T13:40:07.878Z,99330.60
2023-08-02T13:42:36.837Z,99329.20
2023-08-02T13:45:05.343Z,99327.40
2023-08-02T13:47:33.212Z,99324.60
2023-08-02T13:50:01.048Z,99326.40
2023-08-02T13:52:28.833Z,99321.00
2023-08-02T13:54:56.677Z,99318.00
2023-08-02T13:57:24.470Z,99321.40
2023-08-02T13:59:52.690Z,99316.80
2023-08-02T14:02:20.569Z,99314.60
2023-08-02T14:04:48.305Z,99314.80
2023-08-02T14:07:16.178Z,99320.00
2023-08-02T14:09:43.923Z,99315.00
2023-08-02T14:12:15.740Z,99307.40
2023-08-02T14:14:44.465Z,99298.20
2023-08-02T14:17:12.278Z,99301.60
2023-08-02T14:19:40.321Z,99297.60
2023-08-02T14:22:08.284Z,99294.80
2023-08-02T14:24:36.180Z,99297.80
2023-08-02T14:27:05.880Z,99298.60
2023-08-02T14:29:33.791Z,99301.00
2023-08-02T14:32:01.675Z,99304.00
2023-08-02T14:34:29.499Z,99297.80
2023-08-02T14:36:57.342Z,99312.00
2023-08-02T14:39:26.097Z,99310.40
2023-08-02T14:41:54.278Z,99295.60
2023-08-02T14:44:22.053Z,99294.80
2023-08-02T14:46:49.926Z,99291.40
2023-08-02T14:49:17.716Z,99290.40
2023-08-02T14:51:45.675Z,99289.40
2023-08-02T14:54:14.548Z,99287.00
2023-08-02T14:56:43.384Z,99282.20
2023-08-02T14:59:11.753Z,99284.60
2023-08-02T15:01:39.668Z,99279.40
2023-08-02T15:04:07.458Z,99277.00
2023-08-02T15:06:35.273Z,99283.20
2023-08-02T15:09:03.220Z,99285.40
2023-08-02T15:11:31.054Z,99282.60
2023-08-02T15:13:59.585Z,99281.00
2023-08-02T15:16:27.381Z,99281.80
2023-08-02T15:18:55.176Z,99275.20
2023-08-02T15:21:22.968Z,99277.20
2023-08-02T15:23:51.853Z,99277.20
2023-08-02T15:26:19.709Z,99269.00
2023-08-02T15:28:47.492Z,99272.40
2023-08-02T15:31:15.375Z,99278.20
2023-08-02T15:33:44.065Z,99274.20
2023-08-02T15:36:11.835Z,99275.00
2023-08-02T15:38:39.606Z,99276.20
2023-08-02T15:41:07.448Z,99277.60
2023-08-02T15:43:35.196Z,99276.20
2023-08-02T15:46:02.975Z,99277.60
2023-08-02T15:48:30.755Z,99276.40
2023-08-02T15:50:58.927Z,99272.20
2023-08-02T15:53:26.800Z,99270.60
2023-08-02T15:55:54.481Z,99260.20
2023-08-02T15:58:22.323Z,99256.80
2023-08-02T16:00:50.086Z,99255.80
2023-08-02T16:03:18.207Z,99256.80
2023-08-02T16:05:48.585Z,99255.60
2023-08-02T16:08:16.391Z,99238.80
2023-08-02T16:10:45.121Z,99241.40
2023-08-02T16:13:13.665Z,99238.80
2023-08-02T16:15:41.427Z,99235.40
2023-08-02T16:18:10.404Z,99233.80
2023-08-02T16:20:38.226Z,99226.20
2023-08-02T16:23:05.968Z,99225.80
2023-08-02T16:25:33.715Z,99226.00
2023-08-02T16:28:01.712Z,99230.40
2023-08-02T16:30:29.671Z,99234.40
2023-08-02T16:32:57.408Z,99236.60
2023-08-02T16:35:25.910Z,99236.40
2023-08-02T16:37:53.744Z,99236.20
2023-08-02T16:40:21.561Z,99226.20
2023-08-02T16:42:49.373Z,99224.80
2023-08-02T16:45:17.252Z,99224.60
2023-08-02T16:47:45.029Z,99223.00
2023-08-02T16:50:13.837Z,99224.60
2023-08-02T16:52:41.644Z,99227.00
2023-08-02T16:55:09.949Z,99224.20
2023-08-02T16:57:37.815Z,99226.60
2023-08-02T17:00:06.835Z,99224.80
2023-08-02T17:02:34.674Z,99224.80
2023-08-02T17:05:02.525Z,99225.80
2023-08-02T17:07:30.746Z,99221.20
2023-08-02T17:09:58.570Z,99214.60
2023-08-02T17:12:26.429Z,99215.20
2023-08-02T17:14:54.183Z,99214.60
2023-08-02T17:17:22.092Z,99211.80
2023-08-02T17:19:49.829Z,99210.20
2023-08-02T17:22:17.528Z,99209.00
2023-08-02T17:24:45.217Z,99205.80
2023-08-02T17:27:13.054Z,99212.80
2023-08-02T17:29:40.847Z,99211.40
2023-08-02T17:32:09.081Z,99199.60
2023-08-02T17:34:37.032Z,99196.00
2023-08-02T17:37:05.633Z,99199.20
2023-08-02T17:39:33.491Z,99201.60
2023-08-02T17:42:07.372Z,99198.60
2023-08-02T17:44:35.258Z,99200.00
2023-08-02T17:47:03.522Z,99202.60
2023-08-02T17:49:31.391Z,99207.40
2023-08-02T17:51:59.235Z,99209.40
2023-08-02T17:54:27.075Z,99215.40
2023-08-02T17:56:54.857Z,99216.00
2023-08-02T17:59:23.519Z,99220.40
2023-08-02T18:01:51.445Z,99230.60
2023-08-02T18:04:23.688Z,99241.60
2023-08-02T18:06:53.266Z,99246.60
2023-08-02T18:09:21.045Z,99244.80
2023-08-02T18:11:49.114Z,99240.00
2023-08-02T18:14:17.083Z,99232.00
2023-08-02T18:16:45.021Z,99232.20
2023-08-02T18:19:12.841Z,99233.40
2023-08-02T18:21:40.808Z,99226.20
2023-08-02T18:24:08.946Z,99231.60
2023-08-02T18:26:37.026Z,99231.40
2023-08-02T18:29:05.067Z,99234.00
2023-08-02T18:31:32.926Z,99236.60
2023-08-02T18:34:00.748Z,99232.00
2023-08-02T18:36:28.533Z,99234.00
2023-08-02T18:38:56.386Z,99230.80
2023-08-02T18:41:25.008Z,99228.20
2023-08-02T18:43:54.429Z,99230.80
2023-08-02T18:46:22.744Z,99233.20
2023-08-02T18:48:53.352Z,99233.00
2023-08-02T18:51:22.805Z,99231.80
2023-08-02T18:53:51.459Z,99235.80
2023-08-02T18:56:21.402Z,99232.20
2023-08-02T18:58:50.375Z,99234.40
2023-08-02T19:01:18.546Z,99235.40
2023-08-02T19:03:46.815Z,99235.60
2023-08-02T19:06:15.332Z,99233.20
2023-08-02T19:08:45.428Z,99234.80
2023-08-02T19:11:23.515Z,99227.40
2023-08-02T19:13:53.257Z,99223.80
2023-08-02T19:16:21.587Z,99226.40
2023-08-02T19:18:49.623Z,99223.20
2023-08-02T19:21:18.077Z,99227.00
2023-08-02T19:23:46.487Z,99230.60
2023-08-02T19:26:18.686Z,99234.00
2023-08-02T19:28:47.411Z,99233.20
2023-08-02T19:31:15.460Z,99234.20
2023-08-02T19:33:44.770Z,99237.20
2023-08-02T19:36:23.169Z,99236.60
2023-08-02T19:38:51.533Z,99237.20
2023-08-02T19:41:28.077Z,99232.00
2023-08-02T19:43:58.972Z,99234.20
2023-08-02T19:46:27.690Z,99230.60
2023-08-02T19:48:55.842Z,99226.40
2023-08-02T19:51:23.670Z,99223.20
2023-08-02T19:53:51.564Z,99218.20
2023-08-02T19:56:22.991Z,99218.00
2023-08-02T19:58:55.944Z,99217.20
2023-08-02T20:01:30.741Z,99217.40
2023-08-02T20:04:01.701Z,99223.20
2023-08-02T20:06:32.841Z,99218.80
2023-08-02T20:09:00.733Z,99220.80
2023-08-02T20:11:28.626Z,99222.00
2023-08-02T20:13:57.789Z,99217.00
2023-08-02T20:16:27.150Z,99214.60
2023-08-02T20:18:56.440Z,99215.80
2023-08-02T20:21:25.294Z,99206.40
2023-08-02T20:24:03.630Z,99208.20
2023-08-02T20:26:31.907Z,99211.20
2023-08-02T20:28:59.972Z,99210.20
2023-08-02T20:31:34.501Z,99202.20
2023-08-02T20:34:09.515Z,99203.60
2023-08-02T20:36:37.931Z,99204.80
2023-08-02T20:39:12.219Z,99200.60
2023-08-02T20:41:41.309Z,99200.80
2023-08-02T20:44:13.573Z,99194.00
2023-08-02T20:46:41.794Z,99193.60
2023-08-02T20:49:12.092Z,99194.80
2023-08-02T20:51:46.354Z,99197.60
2023-08-02T20:54:15.316Z,99193.40
2023-08-02T20:56:47.464Z,99194.20
2023-08-02T20:59:21.597Z,99185.60
2023-08-02T21:01:51.007Z,99176.00
2023-08-02T21:04:18.861Z,99170.20
2023-08-02T21:06:57.518Z,99171.60
2023-08-02T21:09:33.598Z,99173.60
2023-08-02T21:12:05.866Z,99169.00
2023-08-02T21:14:33.911Z,99168.40
2023-08-02T21:17:02.337Z,99161.00
2023-08-02T21:19:35.805Z,99157.00
2023-08-02T21:22:05.758Z,99159.00
2023-08-02T21:24:33.898Z,99162.60
2023-08-02T21:27:06.856Z,99161.20
2023-08-02T21:29:35.086Z,99157.80
2023-08-02T21:32:03.006Z,99163.60
2023-08-02T21:34:30.757Z,99170.00
2023-08-02T21:36:58.609Z,99169.60
2023-08-02T21:39:26.399Z,99174.20
2023-08-02T21:41:54.331Z,99183.60
2023-08-02T21:44:26.200Z,99188.40
2023-08-02T21:46:54.088Z,99188.20
2023-08-02T21:49:21.852Z,99190.80
2023-08-02T21:51:52.434Z,99189.80
2023-08-02T21:54:20.204Z,99189.60
2023-08-02T21:56:47.943Z,99186.60
2023-08-02T21:59:15.830Z,99185.00
2023-08-02T22:01:45.609Z,99183.00
2023-08-02T22:04:13.664Z,99180.00
2023-08-02T22:06:41.513Z,99183.80
2023-08-02T22:09:09.510Z,99183.00
2023-08-02T22:11:37.630Z,99180.40
2023-08-02T22:14:05.432Z,99183.00
2023-08-02T22:16:33.992Z,99184.40
2023-08-02T22:19:01.809Z,99190.40
2023-08-02T22:21:29.615Z,99186.40
2023-08-02T22:23:57.412Z,99172.80
2023-08-02T22:26:26.712Z,99163.80
2023-08-02T22:28:54.512Z,99164.60
2023-08-02T22:31:22.523Z,99163.40
2023-08-02T22:33:50.419Z,99166.00
2023-08-02T22:36:18.804Z,99162.80
2023-08-02T22:38:49.193Z,99161.60
2023-08-02T22:41:17.761Z,99152.80
2023-08-02T22:43:46.816Z,99147.40
2023-08-02T22:46:14.699Z,99144.20
2023-08-02T22:49:58.527Z,99140.00
2023-08-02T22:51:31.744Z,99140.60
2023-08-02T22:53:59.600Z,99134.40
2023-08-02T22:56:28.999Z,99137.60
2023-08-02T22:59:01.236Z,99142.00
2023-08-02T23:01:33.221Z,99139.80
2023-08-02T23:04:01.281Z,99147.00
2023-08-02T23:06:29.195Z,99149.00
2023-08-02T23:08:57.808Z,99153.60
2023-08-02T23:11:25.623Z,99159.40
2023-08-02T23:13:54.728Z,99160.20
2023-08-02T23:16:25.920Z,99157.80
2023-08-02T23:18:57.673Z,99159.20
2023-08-02T23:21:30.651Z,99149.40
2023-08-02T23:23:58.400Z,99147.60
2023-08-02T23:26:27.189Z,99148.20
2023-08-02T23:28:57.357Z,99144.00
2023-08-02T23:31:26.810Z,99139.20
2023-08-02T23:33:55.202Z,99141.20
2023-08-02T23:36:23.443Z,99142.80
2023-08-02T23:38:51.292Z,99144.00
2023-08-02T23:41:19.298Z,99136.00
2023-08-02T23:43:47.123Z,99133.60
2023-08-02T23:46:15.302Z,99129.00
2023-08-02T23:48:43.072Z,99125.80
2023-08-02T23:51:10.918Z,99120.80
2023-08-02T23:53:38.743Z,99113.20
2023-08-02T23:56:06.480Z,99114.00
2023-08-02T23:58:34.245Z,99121.80
